Time;durP1;ratioP1;P1;durP2;ratioP2;P2;SDS_P1;SDS_P2;PMS_P1;PMS_P2;Temp;Humidity;BMP_temperature;BMP_pressure;BME280_temperature;BME280_humidity;BME280_pressure;Samples;Min_cycle;Max_cycle;Signal;HPM_P1;HPM_P2
2024/04/05 00:00:19;;;;;;;1.20;1.10;;;13.00;99.90;;;;;;5073464;28;20170;-64
2024/04/05 00:02:45;;;;;;;3.60;1.10;;;13.00;99.90;;;;;;5073708;28;20166;-64
2024/04/05 00:05:12;;;;;;;0.80;0.73;;;13.00;99.90;;;;;;5073681;28;20786;-64
2024/04/05 00:07:38;;;;;;;3.10;1.63;;;13.10;99.90;;;;;;5073423;28;20947;-64
2024/04/05 00:10:07;;;;;;;1.20;0.80;;;13.10;99.90;;;;;;5055290;28;20412;-64
2024/04/05 00:12:34;;;;;;;1.43;1.33;;;13.10;99.90;;;;;;5055907;28;20415;-64
2024/04/05 00:15:00;;;;;;;2.20;1.20;;;13.00;99.90;;;;;;5073638;28;20978;-64
2024/04/05 00:17:26;;;;;;;1.20;1.20;;;13.00;99.90;;;;;;5073446;28;20459;-63
2024/04/05 00:19:54;;;;;;;1.60;1.50;;;13.00;99.90;;;;;;5073420;28;20647;-64
2024/04/05 00:22:21;;;;;;;1.23;1.17;;;13.00;99.90;;;;;;5074300;28;20890;-63
2024/04/05 00:24:47;;;;;;;4.30;1.23;;;13.00;99.90;;;;;;5055271;28;20408;-63
2024/04/05 00:27:12;;;;;;;1.20;1.10;;;13.00;99.90;;;;;;5073215;28;20400;-63
2024/04/05 00:29:38;;;;;;;2.77;1.03;;;12.90;99.90;;;;;;5055037;28;20173;-64
2024/04/05 00:32:04;;;;;;;2.20;1.10;;;12.90;99.90;;;;;;5073020;28;20196;-63
2024/04/05 00:34:30;;;;;;;1.20;1.00;;;12.80;99.90;;;;;;5073279;28;20647;-63
2024/04/05 00:36:56;;;;;;;2.57;1.10;;;12.80;99.90;;;;;;5072994;28;20444;-64
2024/04/05 00:39:21;;;;;;;0.93;0.90;;;12.70;99.90;;;;;;5072408;28;20235;-64
2024/04/05 00:41:47;;;;;;;1.07;0.90;;;12.70;99.90;;;;;;5072996;28;20407;-64
2024/04/05 00:44:13;;;;;;;0.87;0.87;;;12.70;99.90;;;;;;5072933;28;20222;-64
2024/04/05 00:46:38;;;;;;;1.80;1.00;;;12.70;99.90;;;;;;5072916;28;20208;-64
2024/04/05 00:49:04;;;;;;;1.73;1.57;;;12.80;99.90;;;;;;5054911;28;20197;-63
2024/04/05 00:51:31;;;;;;;1.10;0.90;;;12.80;99.90;;;;;;5072845;28;20169;-63
2024/04/05 00:53:57;;;;;;;1.27;1.17;;;12.80;99.90;;;;;;5072721;28;20219;-63
2024/04/05 00:56:24;;;;;;;2.53;1.40;;;12.80;99.90;;;;;;5055080;28;21045;-64
2024/04/05 00:58:50;;;;;;;2.83;1.33;;;12.80;99.90;;;;;;5072460;28;20447;-63
2024/04/05 01:01:16;;;;;;;1.17;0.90;;;12.80;99.90;;;;;;5072773;28;20406;-64
2024/04/05 01:03:41;;;;;;;1.23;1.13;;;12.90;99.90;;;;;;5054892;28;20834;-63
2024/04/05 01:06:07;;;;;;;1.60;1.10;;;12.90;99.90;;;;;;5072691;28;20411;-63
2024/04/05 01:08:33;;;;;;;1.17;0.97;;;13.00;99.90;;;;;;5072379;28;20231;-64
2024/04/05 01:10:59;;;;;;;1.60;1.50;;;13.00;99.90;;;;;;5072441;28;20197;-64
2024/04/05 01:13:24;;;;;;;2.30;2.10;;;13.00;99.90;;;;;;5072861;28;20465;-63
2024/04/05 01:15:50;;;;;;;2.40;1.40;;;12.90;99.90;;;;;;5072582;28;20170;-63
2024/04/05 01:18:16;;;;;;;1.17;1.07;;;12.90;99.90;;;;;;5072342;28;20193;-63
2024/04/05 01:20:43;;;;;;;1.20;0.90;;;12.90;99.90;;;;;;5072304;28;20174;-63
2024/04/05 01:23:12;;;;;;;1.50;1.10;;;12.70;99.90;;;;;;5054546;28;20177;-63
2024/04/05 01:25:38;;;;;;;1.20;1.17;;;12.70;99.90;;;;;;5072749;28;20785;-63
2024/04/05 01:28:12;;;;;;;0.90;0.70;;;12.70;99.90;;;;;;5072182;28;20428;-64
2024/04/05 01:30:37;;;;;;;0.93;0.93;;;12.90;99.90;;;;;;5071980;28;20169;-64
2024/04/05 01:33:03;;;;;;;1.53;0.70;;;13.10;99.90;;;;;;5072063;28;20411;-64
2024/04/05 01:35:29;;;;;;;2.67;1.53;;;13.20;99.90;;;;;;5072083;28;20192;-64
2024/04/05 01:37:56;;;;;;;0.90;0.90;;;13.10;99.90;;;;;;5071820;28;20462;-64
2024/04/05 01:40:22;;;;;;;6.50;1.20;;;13.00;99.90;;;;;;5071563;28;20418;-64
2024/04/05 01:42:48;;;;;;;1.20;1.10;;;13.00;99.90;;;;;;5071369;28;20443;-64
2024/04/05 01:45:14;;;;;;;2.43;1.40;;;13.00;99.90;;;;;;5072119;28;20466;-64
2024/04/05 01:47:40;;;;;;;1.73;1.20;;;12.90;99.90;;;;;;5053853;28;20228;-64
2024/04/05 01:50:06;;;;;;;2.50;1.63;;;12.90;99.90;;;;;;5071474;28;20495;-64
2024/04/05 01:52:32;;;;;;;5.03;1.47;;;12.90;99.90;;;;;;5071741;28;20419;-64
2024/04/05 01:54:58;;;;;;;1.90;1.03;;;12.90;99.90;;;;;;5071878;28;20408;-64
2024/04/05 01:57:25;;;;;;;11.17;1.20;;;12.90;99.90;;;;;;5053563;28;20494;-64
2024/04/05 01:59:52;;;;;;;1.73;1.27;;;12.90;99.90;;;;;;5071628;28;20984;-64
2024/04/05 02:02:18;;;;;;;1.37;1.00;;;12.90;99.90;;;;;;5071771;28;20437;-64
2024/04/05 02:04:44;;;;;;;1.33;1.00;;;12.80;99.90;;;;;;5071824;28;20400;-64
2024/04/05 02:07:10;;;;;;;0.93;0.93;;;12.80;99.90;;;;;;5071557;28;20886;-64
2024/04/05 02:09:35;;;;;;;1.33;1.07;;;12.70;99.90;;;;;;5071486;28;20177;-64
2024/04/05 02:12:02;;;;;;;0.60;0.60;;;12.80;99.90;;;;;;5070441;28;20173;-64
2024/04/05 02:14:27;;;;;;;3.60;0.80;;;12.70;99.90;;;;;;5071791;28;20173;-64
2024/04/05 02:16:57;;;;;;;1.47;0.80;;;12.70;99.90;;;;;;5071501;28;20573;-64
2024/04/05 02:19:23;;;;;;;1.33;1.03;;;12.80;99.90;;;;;;5053401;28;20451;-64
2024/04/05 02:21:49;;;;;;;1.87;1.27;;;12.80;99.90;;;;;;5053624;28;20430;-64
2024/04/05 02:24:15;;;;;;;2.33;1.20;;;12.90;99.90;;;;;;5071447;28;20412;-64
2024/04/05 02:26:41;;;;;;;5.40;1.37;;;12.90;99.90;;;;;;5071548;28;20480;-64
2024/04/05 02:29:07;;;;;;;1.97;1.20;;;13.00;99.90;;;;;;5071516;28;20419;-64
2024/04/05 02:31:33;;;;;;;2.53;1.07;;;13.10;99.90;;;;;;5071292;28;20181;-64
2024/04/05 02:33:58;;;;;;;0.80;0.80;;;13.10;99.90;;;;;;5071490;28;21004;-64
2024/04/05 02:36:24;;;;;;;4.63;1.20;;;13.00;99.90;;;;;;5070665;28;20671;-64
2024/04/05 02:38:50;;;;;;;1.90;1.50;;;12.90;99.90;;;;;;5071092;28;20197;-64
2024/04/05 02:41:16;;;;;;;1.67;1.50;;;12.90;99.90;;;;;;5071071;28;20173;-64
2024/04/05 02:43:41;;;;;;;1.70;1.13;;;12.80;99.90;;;;;;5053324;28;20408;-64
2024/04/05 02:46:07;;;;;;;1.03;0.87;;;12.80;99.90;;;;;;5036656;28;20264;-64
2024/04/05 02:48:33;;;;;;;1.10;0.90;;;12.70;99.90;;;;;;5070973;28;20198;-64
2024/04/05 02:50:58;;;;;;;1.50;1.40;;;12.70;99.90;;;;;;5071112;28;20173;-64
2024/04/05 02:53:26;;;;;;;4.63;1.30;;;12.80;99.90;;;;;;5071419;28;20256;-64
2024/04/05 02:55:52;;;;;;;0.97;0.83;;;12.80;99.90;;;;;;5074485;28;20559;-64
2024/04/05 02:58:18;;;;;;;1.07;0.90;;;12.70;99.90;;;;;;5074355;28;20964;-64
2024/04/05 03:00:45;;;;;;;0.90;0.90;;;12.70;99.90;;;;;;5074432;28;20764;-64
2024/04/05 03:03:10;;;;;;;1.53;0.70;;;12.60;99.90;;;;;;5074287;28;20412;-64
2024/04/05 03:05:36;;;;;;;3.27;0.90;;;12.70;99.90;;;;;;5074324;28;20396;-64
2024/04/05 03:08:02;;;;;;;1.23;1.13;;;12.50;99.90;;;;;;5074074;28;20190;-64
2024/04/05 03:10:29;;;;;;;1.70;0.80;;;12.50;99.90;;;;;;5055949;28;20228;-64
2024/04/05 03:12:56;;;;;;;0.87;0.87;;;12.50;99.90;;;;;;5056076;28;20503;-64
2024/04/05 03:15:22;;;;;;;1.70;1.20;;;12.50;99.90;;;;;;5074095;28;20412;-63
2024/04/05 03:17:48;;;;;;;5.00;1.20;;;12.40;99.90;;;;;;5073929;28;20878;-64
2024/04/05 03:20:14;;;;;;;0.90;0.90;;;12.30;99.90;;;;;;5055531;28;20453;-64
2024/04/05 03:22:40;;;;;;;1.80;1.50;;;12.30;99.90;;;;;;5073565;28;20189;-64
2024/04/05 03:25:06;;;;;;;1.70;1.20;;;12.30;99.90;;;;;;5074496;28;20174;-64
2024/04/05 03:27:33;;;;;;;1.07;1.07;;;12.30;99.90;;;;;;5074219;28;20439;-64
2024/04/05 03:30:02;;;;;;;1.90;1.33;;;12.10;99.90;;;;;;5056097;28;20423;-64
2024/04/05 03:32:28;;;;;;;0.70;0.70;;;12.00;99.90;;;;;;5074461;28;20415;-64
2024/04/05 03:34:54;;;;;;;2.00;0.90;;;11.80;99.90;;;;;;5074151;28;20929;-64
2024/04/05 03:37:21;;;;;;;1.47;1.10;;;11.90;99.90;;;;;;5074069;28;20460;-64
2024/04/05 03:39:53;;;;;;;0.90;0.90;;;12.00;99.90;;;;;;5073899;28;20407;-64
2024/04/05 03:42:19;;;;;;;2.20;0.83;;;11.90;99.90;;;;;;5074153;28;20408;-64
2024/04/05 03:44:46;;;;;;;1.20;1.10;;;11.70;99.90;;;;;;5073764;28;20432;-64
2024/04/05 03:47:12;;;;;;;1.27;1.17;;;11.70;99.90;;;;;;5073919;28;20424;-64
2024/04/05 03:49:38;;;;;;;3.43;1.30;;;11.80;99.90;;;;;;5072757;28;20419;-64
2024/04/05 03:52:04;;;;;;;5.13;1.73;;;11.80;99.90;;;;;;5038596;28;20955;-64
2024/04/05 03:54:30;;;;;;;0.80;0.80;;;11.70;99.90;;;;;;5056268;28;20598;-63
2024/04/05 03:56:55;;;;;;;2.00;0.77;;;11.70;99.90;;;;;;5073769;28;20459;-64
2024/04/05 03:59:21;;;;;;;1.43;1.33;;;11.80;99.90;;;;;;5055510;28;20213;-64
2024/04/05 04:01:51;;;;;;;2.63;1.30;;;11.70;99.90;;;;;;5055890;28;20184;-64
2024/04/05 04:04:17;;;;;;;1.73;1.30;;;11.60;99.90;;;;;;5074122;28;20178;-64
2024/04/05 04:06:42;;;;;;;1.08;1.00;;;11.60;99.90;;;;;;5073027;28;20180;-64
2024/04/05 04:09:08;;;;;;;1.50;1.40;;;11.60;99.90;;;;;;5073432;28;20189;-64
2024/04/05 04:11:35;;;;;;;2.27;1.60;;;11.60;99.90;;;;;;5073578;28;20177;-64
2024/04/05 04:14:00;;;;;;;1.10;1.00;;;11.50;99.90;;;;;;5055397;28;20929;-64
2024/04/05 04:16:26;;;;;;;1.87;0.87;;;11.50;99.90;;;;;;5073822;28;20239;-64
2024/04/05 04:18:51;;;;;;;1.30;1.20;;;11.40;99.90;;;;;;5055069;28;20189;-64
2024/04/05 04:21:17;;;;;;;2.63;1.10;;;11.40;99.90;;;;;;5073306;28;20307;-64
2024/04/05 04:23:43;;;;;;;3.30;1.13;;;11.30;99.90;;;;;;5073509;28;20186;-64
2024/04/05 04:26:08;;;;;;;2.20;1.17;;;11.10;99.90;;;;;;5073187;28;20166;-64
2024/04/05 04:28:34;;;;;;;1.20;1.10;;;11.10;99.90;;;;;;5072928;28;20286;-64
2024/04/05 04:31:22;;;;;;;0.80;0.70;;;11.20;99.90;;;;;;5072968;28;20196;-64
2024/04/05 04:33:52;;;;;;;2.22;1.15;;;10.70;99.90;;;;;;5073020;28;20169;-64
2024/04/05 04:36:22;;;;;;;2.03;1.00;;;10.30;99.90;;;;;;5072979;28;20197;-64
2024/04/05 04:38:48;;;;;;;1.20;1.20;;;9.90;99.90;;;;;;5054980;28;20539;-64
2024/04/05 04:41:14;;;;;;;1.55;1.45;;;9.60;99.90;;;;;;5072912;28;20176;-65
2024/04/05 04:43:44;;;;;;;1.90;1.33;;;9.40;99.90;;;;;;5073198;28;20168;-64
2024/04/05 04:46:11;;;;;;;7.65;1.63;;;9.20;99.90;;;;;;5054925;28;20205;-64
2024/04/05 04:48:37;;;;;;;1.30;1.15;;;9.10;99.90;;;;;;5072595;28;20197;-63
2024/04/05 04:51:03;;;;;;;1.30;1.20;;;9.00;99.90;;;;;;5055079;28;20186;-63
2024/04/05 04:53:29;;;;;;;1.33;1.23;;;9.00;99.90;;;;;;5056044;28;20174;-66
2024/04/05 04:55:54;;;;;;;2.63;1.03;;;9.00;99.90;;;;;;5072795;28;20676;-63
2024/04/05 04:58:23;;;;;;;0.70;0.70;;;8.90;99.90;;;;;;5054534;28;20258;-63
2024/04/05 05:00:49;;;;;;;0.93;0.93;;;8.90;99.90;;;;;;5072367;28;20253;-63
2024/04/05 05:03:15;;;;;;;0.90;0.90;;;8.70;99.90;;;;;;5072628;28;20256;-63
2024/04/05 05:05:42;;;;;;;0.80;0.80;;;8.70;99.90;;;;;;5072668;28;20295;-63
2024/04/05 05:08:11;;;;;;;1.63;1.52;;;8.70;99.90;;;;;;5072471;28;20941;-63
2024/04/05 05:10:38;;;;;;;1.63;1.45;;;8.80;99.90;;;;;;5072505;28;20260;-63
2024/04/05 05:13:09;;;;;;;1.17;1.17;;;8.90;99.90;;;;;;5055060;28;20177;-63
2024/04/05 05:15:35;;;;;;;0.73;0.73;;;8.90;99.90;;;;;;5073000;28;20256;-63
2024/04/05 05:18:01;;;;;;;1.40;1.30;;;8.90;99.90;;;;;;5071769;28;20288;-63
2024/04/05 05:20:27;;;;;;;1.00;1.00;;;8.70;99.90;;;;;;5072480;28;20715;-63
2024/04/05 05:22:56;;;;;;;1.40;1.30;;;8.60;99.90;;;;;;5072857;28;20651;-63
2024/04/05 05:25:22;;;;;;;2.10;0.77;;;8.50;99.90;;;;;;5072562;28;20176;-63
2024/04/05 05:27:48;;;;;;;2.07;1.00;;;8.50;99.90;;;;;;5072224;28;20272;-63
2024/04/05 05:30:14;;;;;;;1.03;0.90;;;8.70;99.90;;;;;;5072215;28;20181;-63
2024/04/05 05:32:41;;;;;;;0.63;0.63;;;8.80;99.90;;;;;;5054559;28;20174;-63
2024/04/05 05:35:07;;;;;;;1.80;1.20;;;8.80;99.90;;;;;;5072877;28;20170;-63
2024/04/05 05:37:33;;;;;;;1.60;1.00;;;8.80;99.90;;;;;;5054478;28;20208;-63
2024/04/05 05:39:59;;;;;;;1.10;1.00;;;8.80;99.90;;;;;;5072055;28;20180;-63
2024/04/05 05:42:26;;;;;;;0.83;0.83;;;8.80;99.90;;;;;;5072505;28;20404;-63
2024/04/05 05:44:52;;;;;;;1.27;1.17;;;8.80;99.90;;;;;;5072969;28;20551;-63
2024/04/05 05:47:18;;;;;;;2.87;0.90;;;8.80;99.90;;;;;;5054352;28;20184;-63
2024/04/05 05:49:43;;;;;;;1.40;0.70;;;8.70;99.90;;;;;;5072104;28;20447;-63
2024/04/05 05:52:10;;;;;;;3.20;1.50;;;8.90;99.90;;;;;;5054484;28;20651;-63
2024/04/05 05:54:35;;;;;;;1.25;1.15;;;9.00;99.90;;;;;;5072597;28;20182;-63
2024/04/05 05:57:02;;;;;;;4.50;1.03;;;9.10;99.90;;;;;;5072618;28;20201;-63
2024/04/05 05:59:30;;;;;;;2.25;1.88;;;9.10;99.90;;;;;;5072031;28;20439;-63
2024/04/05 06:01:56;;;;;;;3.20;1.83;;;9.20;99.90;;;;;;5072451;28;20169;-63
2024/04/05 06:04:22;;;;;;;2.08;1.10;;;9.30;99.90;;;;;;5072075;28;20193;-63
2024/04/05 06:06:48;;;;;;;1.13;1.03;;;9.50;99.90;;;;;;5072101;28;20609;-63
2024/04/05 06:09:14;;;;;;;3.90;1.00;;;9.60;99.90;;;;;;5071539;28;20189;-63
2024/04/05 06:11:40;;;;;;;0.87;0.87;;;9.80;99.90;;;;;;5071852;28;20171;-63
2024/04/05 06:14:06;;;;;;;3.43;1.83;;;10.10;99.90;;;;;;5072000;28;20992;-63
2024/04/05 06:16:32;;;;;;;3.03;1.53;;;10.40;99.90;;;;;;5071665;28;20539;-63
2024/04/05 06:18:58;;;;;;;1.40;1.30;;;10.80;99.90;;;;;;5071779;28;20454;-63
2024/04/05 06:21:23;;;;;;;2.30;1.30;;;11.00;99.90;;;;;;5071497;28;20192;-63
2024/04/05 06:23:49;;;;;;;8.73;1.57;;;11.10;99.90;;;;;;5072153;28;20514;-63
2024/04/05 06:26:15;;;;;;;2.40;2.30;;;11.10;99.90;;;;;;5071904;28;20551;-63
2024/04/05 06:28:41;;;;;;;2.70;1.50;;;11.30;99.90;;;;;;5072417;28;20284;-63
2024/04/05 06:31:06;;;;;;;2.60;1.37;;;11.50;99.90;;;;;;5075824;28;20176;-63
2024/04/05 06:33:32;;;;;;;1.50;1.10;;;11.70;99.90;;;;;;5075536;28;20184;-63
2024/04/05 06:36:01;;;;;;;4.10;1.27;;;12.00;99.90;;;;;;5057427;28;20266;-64
2024/04/05 06:38:28;;;;;;;1.63;1.30;;;12.40;99.90;;;;;;5075071;28;20290;-64
2024/04/05 06:41:01;;;;;;;1.33;1.23;;;12.70;99.90;;;;;;5057282;28;20461;-64
2024/04/05 06:43:28;;;;;;;1.37;1.27;;;12.90;99.90;;;;;;5075214;28;20494;-64
2024/04/05 06:45:59;;;;;;;1.53;1.43;;;13.10;99.90;;;;;;5057059;28;20406;-64
2024/04/05 06:48:25;;;;;;;1.13;1.07;;;13.30;99.90;;;;;;5074968;28;20424;-64
2024/04/05 06:50:53;;;;;;;2.33;1.77;;;13.30;99.90;;;;;;5074719;28;21055;-64
2024/04/05 06:53:27;;;;;;;1.87;1.07;;;13.40;99.90;;;;;;5074920;28;20404;-64
2024/04/05 06:55:53;;;;;;;1.57;1.47;;;14.00;99.90;;;;;;5074889;28;20407;-64
2024/04/05 06:58:19;;;;;;;1.67;1.57;;;14.10;99.90;;;;;;5056652;28;20460;-64
2024/04/05 07:00:47;;;;;;;1.30;1.20;;;14.50;99.90;;;;;;5074709;28;20860;-64
2024/04/05 07:03:13;;;;;;;2.10;1.90;;;14.80;99.90;;;;;;5074938;28;20399;-64
2024/04/05 07:05:40;;;;;;;5.27;1.90;;;15.00;99.90;;;;;;5074623;28;20823;-64
2024/04/05 07:08:06;;;;;;;1.37;1.27;;;15.20;99.90;;;;;;5074524;28;20427;-64
2024/04/05 07:10:33;;;;;;;1.20;1.07;;;15.20;97.70;;;;;;5056364;28;20423;-64
2024/04/05 07:12:59;;;;;;;2.23;1.83;;;15.50;99.90;;;;;;5074442;28;20440;-64
2024/04/05 07:15:25;;;;;;;2.10;1.90;;;16.20;99.90;;;;;;5074552;28;20423;-64
2024/04/05 07:17:52;;;;;;;1.77;1.67;;;17.10;99.90;;;;;;5074317;28;20647;-63
2024/04/05 07:20:21;;;;;;;1.70;1.40;;;18.20;98.90;;;;;;5074281;28;20760;-64
2024/04/05 07:22:47;;;;;;;1.90;1.60;;;19.30;97.60;;;;;;5056940;28;20415;-64
2024/04/05 07:25:13;;;;;;;5.00;1.63;;;20.40;96.30;;;;;;5074844;28;20404;-64
2024/04/05 07:27:39;;;;;;;2.03;1.63;;;21.20;93.50;;;;;;5074390;28;20241;-64
2024/04/05 07:30:06;;;;;;;7.70;2.30;;;22.20;91.50;;;;;;5074078;28;20504;-64
2024/04/05 07:32:32;;;;;;;4.03;2.70;;;23.30;90.80;;;;;;5074358;28;20415;-64
2024/04/05 07:34:57;;;;;;;3.70;1.90;;;24.50;87.10;;;;;;5056133;28;20408;-62
2024/04/05 07:37:23;;;;;;;1.90;1.80;;;25.30;81.40;;;;;;5055955;28;20695;-62
2024/04/05 07:39:51;;;;;;;3.97;2.03;;;26.30;77.80;;;;;;5073296;28;20176;-63
2024/04/05 07:42:19;;;;;;;3.10;2.00;;;27.70;71.80;;;;;;5073816;28;20188;-63
2024/04/05 07:44:45;;;;;;;2.00;1.80;;;28.80;68.40;;;;;;5074106;28;20521;-63
2024/04/05 07:47:11;;;;;;;2.50;2.30;;;29.60;64.00;;;;;;5073775;28;20412;-63
2024/04/05 07:49:36;;;;;;;4.07;1.53;;;29.80;60.70;;;;;;5073673;28;20177;-64
2024/04/05 07:52:03;;;;;;;1.30;1.20;;;29.60;58.50;;;;;;5074105;28;20178;-63
2024/04/05 07:54:28;;;;;;;2.47;1.20;;;29.30;59.40;;;;;;5073794;28;20169;-62
2024/04/05 07:56:54;;;;;;;3.20;1.77;;;29.50;57.80;;;;;;5073832;28;20474;-63
2024/04/05 07:59:20;;;;;;;5.23;2.10;;;29.90;56.10;;;;;;5073587;28;20686;-64
2024/04/05 08:01:46;;;;;;;3.10;1.90;;;29.80;57.30;;;;;;5056256;28;20176;-64
2024/04/05 08:04:11;;;;;;;2.17;1.80;;;30.30;56.30;;;;;;5073781;28;20600;-63
2024/04/05 08:06:37;;;;;;;2.13;1.37;;;30.70;55.90;;;;;;5055690;28;20418;-65
2024/04/05 08:09:03;;;;;;;2.60;1.10;;;30.90;53.60;;;;;;5055849;28;20228;-66
2024/04/05 08:11:28;;;;;;;6.10;2.00;;;31.10;52.20;;;;;;5073892;28;20261;-66
2024/04/05 08:13:54;;;;;;;3.53;1.23;;;31.50;50.00;;;;;;5073452;28;20169;-64
2024/04/05 08:16:20;;;;;;;6.57;0.97;;;32.10;50.20;;;;;;5073336;28;20204;-64
2024/04/05 08:18:46;;;;;;;0.80;0.80;;;32.50;50.40;;;;;;5073442;28;20189;-64
2024/04/05 08:21:11;;;;;;;3.63;1.43;;;32.70;48.00;;;;;;5073791;28;20461;-64
2024/04/05 08:23:37;;;;;;;1.80;1.03;;;32.70;46.80;;;;;;5073370;28;20226;-64
2024/04/05 08:26:03;;;;;;;1.97;1.87;;;32.40;47.60;;;;;;5073232;28;20162;-64
2024/04/05 08:28:29;;;;;;;4.40;2.47;;;32.50;46.90;;;;;;5055253;28;20477;-64
2024/04/05 08:30:55;;;;;;;3.80;3.10;;;32.90;44.30;;;;;;5073092;28;20166;-64
2024/04/05 08:33:20;;;;;;;2.10;2.00;;;33.10;43.90;;;;;;5073405;28;20259;-64
2024/04/05 08:35:53;;;;;;;1.63;1.50;;;33.10;42.60;;;;;;5073232;28;20527;-64
2024/04/05 08:38:19;;;;;;;1.23;0.90;;;33.40;44.10;;;;;;5073016;28;20201;-64
2024/04/05 08:40:45;;;;;;;0.70;0.70;;;33.70;42.70;;;;;;5072782;28;20796;-64
2024/04/05 08:43:12;;;;;;;0.80;0.67;;;33.60;41.80;;;;;;5073016;28;20651;-64
2024/04/05 08:45:38;;;;;;;1.73;0.70;;;33.80;41.80;;;;;;5072803;28;20432;-64
2024/04/05 08:48:04;;;;;;;0.97;0.80;;;33.70;41.50;;;;;;5072865;28;20470;-64
2024/04/05 08:50:32;;;;;;;1.40;1.10;;;34.10;40.70;;;;;;5072844;28;20173;-64
2024/04/05 08:52:58;;;;;;;1.60;1.10;;;34.00;39.80;;;;;;5072944;28;20396;-64
2024/04/05 08:55:25;;;;;;;2.50;1.40;;;33.80;39.90;;;;;;5073009;28;20414;-64
2024/04/05 08:57:52;;;;;;;0.97;0.97;;;33.20;39.20;;;;;;5072336;28;20628;-64
2024/04/05 09:00:23;;;;;;;1.50;0.67;;;32.80;38.70;;;;;;5072302;28;20789;-64
2024/04/05 09:02:58;;;;;;;1.40;0.63;;;32.40;38.00;;;;;;5072678;28;20400;-64
2024/04/05 09:05:24;;;;;;;1.53;0.97;;;32.10;39.40;;;;;;5072506;28;20844;-64
2024/04/05 09:07:51;;;;;;;3.47;1.00;;;31.50;37.90;;;;;;5072245;28;20569;-64
2024/04/05 09:10:17;;;;;;;0.80;0.70;;;30.40;38.80;;;;;;5054201;28;20903;-64
2024/04/05 09:12:59;;;;;;;1.80;0.90;;;29.60;40.10;;;;;;5072065;28;20451;-64
2024/04/05 09:15:25;;;;;;;1.07;0.87;;;29.00;41.40;;;;;;5072648;28;20481;-64
2024/04/05 09:17:52;;;;;;;3.17;0.70;;;28.80;40.30;;;;;;5054396;28;21015;-63
2024/04/05 09:20:36;;;;;;;1.63;0.60;;;29.00;40.60;;;;;;5072035;28;20888;-64
2024/04/05 09:23:04;;;;;;;1.27;0.73;;;28.70;40.20;;;;;;5072496;28;20491;-63
2024/04/05 09:25:32;;;;;;;2.00;0.73;;;28.20;41.00;;;;;;5054573;28;20454;-63
2024/04/05 09:28:10;;;;;;;1.20;0.73;;;27.90;41.70;;;;;;5053999;28;20531;-64
2024/04/05 09:30:36;;;;;;;2.80;1.00;;;27.90;42.00;;;;;;5054333;28;20419;-63
2024/04/05 09:33:02;;;;;;;3.63;0.80;;;27.70;41.80;;;;;;5072423;28;20411;-63
2024/04/05 09:35:30;;;;;;;0.90;0.70;;;27.50;41.30;;;;;;5054366;28;20412;-63
2024/04/05 09:37:56;;;;;;;0.87;0.87;;;27.00;43.40;;;;;;5071943;28;20472;-63
2024/04/05 09:40:25;;;;;;;1.07;0.70;;;26.60;42.30;;;;;;5072049;28;21023;-63
2024/04/05 09:42:54;;;;;;;1.00;0.60;;;26.20;43.80;;;;;;5072101;28;20414;-63
2024/04/05 09:45:26;;;;;;;3.53;0.73;;;26.30;43.70;;;;;;5072154;28;20891;-63
2024/04/05 09:47:53;;;;;;;2.30;0.77;;;26.50;42.70;;;;;;5053935;28;20442;-63
2024/04/05 09:50:22;;;;;;;0.97;0.70;;;26.30;42.70;;;;;;5053783;28;20416;-63
2024/04/05 09:52:52;;;;;;;1.80;0.70;;;25.90;43.90;;;;;;5072020;28;20429;-63
2024/04/05 09:55:23;;;;;;;0.80;0.70;;;24.90;45.20;;;;;;5071796;28;20449;-63
2024/04/05 09:57:49;;;;;;;1.03;0.93;;;24.10;46.90;;;;;;5071558;28;20922;-63
2024/04/05 10:00:20;;;;;;;2.10;0.80;;;24.00;47.20;;;;;;5071614;28;20407;-64
2024/04/05 10:02:57;;;;;;;2.53;0.70;;;24.40;45.90;;;;;;5072082;28;20408;-64
2024/04/05 10:05:28;;;;;;;0.80;0.70;;;25.10;46.10;;;;;;5078306;28;20394;-63
2024/04/05 10:07:54;;;;;;;1.60;1.27;;;25.30;44.80;;;;;;5060313;28;20436;-63
2024/04/05 10:10:33;;;;;;;1.77;0.60;;;25.00;45.60;;;;;;5060164;28;20775;-63
2024/04/05 10:13:16;;;;;;;1.00;0.90;;;25.00;45.10;;;;;;5078214;28;20449;-64
2024/04/05 10:15:58;;;;;;;1.03;0.80;;;24.70;45.50;;;;;;5078888;28;20964;-65
2024/04/05 10:18:37;;;;;;;1.63;0.80;;;25.20;44.90;;;;;;5078240;28;20509;-65
2024/04/05 10:21:08;;;;;;;0.80;0.80;;;24.90;44.30;;;;;;5078318;28;20907;-64
2024/04/05 10:23:35;;;;;;;1.80;1.10;;;24.70;45.30;;;;;;5078043;28;20427;-64
2024/04/05 10:26:02;;;;;;;0.73;0.70;;;24.70;44.20;;;;;;5060083;28;20549;-63
2024/04/05 10:28:30;;;;;;;1.10;0.90;;;24.70;44.50;;;;;;5078026;28;20503;-63
2024/04/05 10:31:01;;;;;;;2.20;1.13;;;24.80;44.40;;;;;;5059978;28;20461;-63
2024/04/05 10:33:27;;;;;;;0.80;0.80;;;24.50;43.70;;;;;;5060240;28;20412;-63
2024/04/05 10:35:57;;;;;;;1.13;0.90;;;24.00;44.30;;;;;;5077921;28;20815;-63
2024/04/05 10:38:22;;;;;;;0.80;0.60;;;23.60;45.20;;;;;;5077928;28;20439;-63
2024/04/05 10:40:58;;;;;;;2.37;1.17;;;23.60;45.40;;;;;;5077807;28;20377;-63
2024/04/05 10:43:25;;;;;;;0.90;0.67;;;23.50;45.50;;;;;;5060001;28;20173;-63
2024/04/05 10:45:55;;;;;;;2.10;0.90;;;23.30;45.50;;;;;;5078287;28;20422;-63
2024/04/05 10:48:24;;;;;;;1.00;0.77;;;23.20;46.20;;;;;;5059797;28;20484;-63
2024/04/05 10:50:50;;;;;;;0.97;0.90;;;23.00;44.80;;;;;;5077696;28;20394;-64
2024/04/05 10:53:20;;;;;;;0.60;0.60;;;22.70;46.00;;;;;;5077972;28;20975;-63
2024/04/05 10:55:46;;;;;;;1.50;1.20;;;22.50;46.20;;;;;;5077796;28;20411;-63
2024/04/05 10:58:13;;;;;;;1.37;1.00;;;22.30;47.00;;;;;;5077757;28;20516;-63
2024/04/05 11:00:40;;;;;;;3.03;0.70;;;22.10;47.90;;;;;;5077711;28;20378;-63
2024/04/05 11:03:09;;;;;;;0.73;0.50;;;22.00;47.80;;;;;;5043054;28;20383;-63
2024/04/05 11:05:36;;;;;;;0.70;0.67;;;21.70;47.70;;;;;;5077904;28;20399;-63
2024/04/05 11:08:04;;;;;;;0.77;0.70;;;21.60;48.90;;;;;;5077631;28;20389;-63
2024/04/05 11:10:34;;;;;;;1.30;0.90;;;21.60;49.10;;;;;;5060202;28;20747;-63
2024/04/05 11:13:17;;;;;;;1.47;0.60;;;21.50;50.10;;;;;;5077738;28;20435;-63
2024/04/05 11:15:43;;;;;;;1.73;1.03;;;21.50;50.10;;;;;;5057445;28;20538;-63
2024/04/05 11:18:09;;;;;;;1.27;1.27;;;21.50;50.00;;;;;;5056510;28;21031;-63
2024/04/05 11:20:39;;;;;;;1.33;0.93;;;21.60;51.00;;;;;;5074345;28;20819;-62
2024/04/05 11:23:07;;;;;;;2.93;0.87;;;21.60;49.40;;;;;;5040449;28;20386;-63
2024/04/05 11:25:33;;;;;;;0.73;0.67;;;21.60;48.60;;;;;;5074626;28;20403;-62
2024/04/05 11:27:58;;;;;;;0.70;0.70;;;21.50;48.40;;;;;;5056272;28;20507;-64
2024/04/05 11:30:24;;;;;;;1.03;0.87;;;21.40;49.10;;;;;;5074207;28;20416;-63
2024/04/05 11:32:50;;;;;;;0.70;0.60;;;21.40;49.20;;;;;;5074228;28;20408;-64
2024/04/05 11:35:16;;;;;;;0.83;0.57;;;21.30;49.30;;;;;;5074259;28;20404;-63
2024/04/05 11:37:47;;;;;;;2.57;0.67;;;21.30;48.90;;;;;;5074112;28;21050;-63
2024/04/05 11:40:14;;;;;;;0.73;0.73;;;21.50;48.90;;;;;;5055912;28;20626;-63
2024/04/05 11:42:40;;;;;;;1.47;0.73;;;21.70;49.50;;;;;;5056104;28;20423;-63
2024/04/05 11:45:07;;;;;;;0.83;0.50;;;21.70;48.70;;;;;;5073684;28;20412;-63
2024/04/05 11:47:33;;;;;;;1.60;0.97;;;21.80;48.70;;;;;;5073516;28;20990;-64
2024/04/05 11:50:00;;;;;;;1.50;0.80;;;21.90;49.60;;;;;;5073357;28;20420;-63
2024/04/05 11:52:27;;;;;;;0.70;0.70;;;22.20;49.10;;;;;;5073349;28;20378;-63
2024/04/05 11:54:53;;;;;;;0.77;0.50;;;22.40;48.80;;;;;;5073841;28;20407;-63
2024/04/05 11:57:18;;;;;;;3.00;1.07;;;22.20;47.80;;;;;;5073712;28;21013;-64
2024/04/05 11:59:44;;;;;;;0.90;0.70;;;22.40;48.90;;;;;;5055834;28;20182;-64
2024/04/05 12:02:11;;;;;;;0.83;0.70;;;22.80;47.80;;;;;;5074029;28;20165;-64
2024/04/05 12:04:37;;;;;;;1.17;1.07;;;22.80;49.00;;;;;;5074016;28;20818;-64
2024/04/05 12:07:04;;;;;;;1.37;0.87;;;22.80;48.30;;;;;;5073921;28;20410;-64
2024/04/05 12:09:29;;;;;;;1.33;0.83;;;22.80;48.50;;;;;;5073347;28;20423;-64
2024/04/05 12:11:55;;;;;;;1.70;0.80;;;22.90;47.80;;;;;;5073480;28;20903;-64
2024/04/05 12:14:21;;;;;;;1.67;1.00;;;22.80;48.10;;;;;;5073647;28;20605;-64
2024/04/05 12:16:46;;;;;;;1.10;0.80;;;22.70;47.90;;;;;;5073625;28;20393;-64
2024/04/05 12:19:12;;;;;;;0.87;0.60;;;22.70;47.70;;;;;;5073313;28;20271;-64
2024/04/05 12:21:38;;;;;;;1.37;1.10;;;22.60;47.10;;;;;;5073181;28;20166;-64
2024/04/05 12:24:04;;;;;;;2.43;1.27;;;22.40;47.70;;;;;;5073456;28;20211;-64
2024/04/05 12:26:30;;;;;;;1.33;0.60;;;22.40;49.60;;;;;;5072385;28;20659;-63
2024/04/05 12:28:56;;;;;;;0.70;0.70;;;22.40;47.30;;;;;;5072641;28;20439;-64
2024/04/05 12:31:21;;;;;;;1.37;0.83;;;22.20;48.30;;;;;;5055528;28;20604;-64
2024/04/05 12:33:47;;;;;;;2.47;1.00;;;22.20;48.40;;;;;;5055498;28;20177;-64
2024/04/05 12:36:14;;;;;;;0.60;0.60;;;22.40;47.90;;;;;;5072972;28;20658;-64
2024/04/05 12:38:41;;;;;;;1.97;0.93;;;22.60;49.00;;;;;;5072995;28;20683;-64
2024/04/05 12:41:07;;;;;;;0.97;0.67;;;22.90;48.00;;;;;;5072579;28;20511;-64
2024/04/05 12:43:35;;;;;;;2.10;0.80;;;23.00;46.80;;;;;;5055086;28;20427;-64
2024/04/05 12:46:06;;;;;;;1.53;0.83;;;22.80;47.60;;;;;;5073533;28;20404;-63